Latest Coastal Weather Observations for Gabo Island

IDT60701

Issued at 4:05 pm EST Saturday 20 September 2014 (issued every 10 minutes, with the page automatically refreshed every 10 minutes)

About coastal observations | Map of coastal stations | Coastal observations for TAS | Marine services | Other Formats
Station Details ID: 084016 Name: GABO ISLAND LIGHTHOUSE Lat: -37.57 Lon: 149.92 Height: 15.2 m
Data from the previous 72 hours. | See also: Recent months at Gabo Island
Date/Time
EST
Temp

°C
Wind Pressure Rain
since 9am
mm
Weather Cloud Vis
km
Sea
Height
m
Swell
Dir
 
Speed
knots
Gust
knots
hPa Trend Height
m
Period
s
Dir
20/04:00pm 14.3 WSW 20 24 1025.3 - 0.0 - - - - - - -
20/03:30pm 14.1 SW 23 28 1024.9 - 0.0 - - - - - - -
20/03:00pm 14.6 SW 22 27 1024.7 - 0.0 Fine Mostly clear 20 3 1.0 - SE
20/02:30pm 14.4 SW 24 29 1024.7 - 0.0 - - - - - - -
20/02:00pm 14.9 SW 24 28 1024.5 - 0.0 - - - - - - -
20/01:30pm 14.9 SW 21 26 1024.3 - 0.0 - - - - - - -
20/01:00pm 14.9 SW 23 27 1024.3 - 0.0 - - - - - - -
20/12:30pm 14.8 SW 20 25 1024.6 - 0.0 - - - - - - -
20/12:00pm 15.4 WSW 19 24 1024.6 - 0.0 - - - - - - -
20/11:30am 14.9 WSW 21 26 1024.8 - 0.0 - - - - - - -
20/11:00am 14.1 WSW 23 28 1024.8 - 0.0 - - - - - - -
20/10:30am 13.1 WSW 21 26 1024.7 - 0.0 - - - - - - -
20/10:00am 13.9 WSW 18 25 1024.7 - 0.0 - - - - - - -
20/09:30am 14.4 WSW 19 24 1024.5 - 0.0 - - - - - - -
20/09:00am 13.4 WSW 21 26 1024.4 - 0.0 Distant precip. Mostly cloudy 25 3 4.0 - S
20/08:30am 12.6 WSW 21 25 1024.1 - 0.0 - - - - - - -
20/08:00am 12.3 W 20 25 1023.9 - 0.0 - - - - - - -
20/07:30am 11.8 W 21 26 1023.6 - 0.0 - - - - - - -
20/07:00am 11.9 W 23 28 1023.1 - 0.0 - - - - - - -
20/06:30am 11.5 W 20 24 1022.9 - 0.0 - - - - - - -
20/06:00am 11.5 W 23 30 1022.6 - 0.0 - - - - - - -
20/05:30am 11.4 W 21 26 1022.4 - 0.0 - - - - - - -
20/05:00am 11.5 WSW 21 26 1021.9 - 0.0 - - - - - - -
20/04:30am 11.3 W 23 29 1021.4 - 0.0 - - - - - - -
20/04:00am 11.3 W 22 27 1021.2 - 0.0 - - - - - - -
20/03:30am 11.3 W 22 28 1021.2 - 0.0 - - - - - - -
20/03:00am 11.6 W 24 29 1020.8 - 0.0 Fine Mostly clear 30 3 4.0 - S
20/02:30am 11.6 WSW 23 29 1021.0 - 0.0 - - - - - - -
20/02:00am 11.7 WSW 24 29 1021.0 - 0.0 - - - - - - -
20/01:30am 11.6 W 23 29 1021.0 - 0.0 - - - - - - -
20/01:00am 12.1 WSW 25 31 1021.1 - 0.0 - - - - - - -
20/12:30am 12.4 WSW 26 32 1020.9 - 0.0 - - - - - - -
20/12:13am 12.4 WSW 25 35 1020.8 - 0.0 - - - - - - -
20/12:00am 12.6 WSW 25 33 1020.8 - 0.0 - - - - - - -
 
Date/Time
EST
Temp

°C
Wind Pressure Rain
since 9am
mm
Weather Cloud Vis
km
Sea
Height
m
Swell
Dir
 
Speed
knots
Gust
knots
hPa Trend Height
m
Period
s
Dir
19/11:30pm 12.7 WSW 26 32 1020.6 - 0.0 - - - - - - -
19/11:00pm 12.7 WSW 28 37 1020.8 - 0.0 - - - - - - -
19/10:53pm 12.6 WSW 26 37 1020.7 - 0.0 - - - - - - -
19/10:30pm 12.9 WSW 26 35 1020.8 - 0.0 - - - - - - -
19/10:00pm 12.9 WSW 26 33 1020.7 - 0.0 - - - - - - -
19/09:30pm 13.0 WSW 25 35 1020.6 - 0.0 - - - - - - -
19/09:00pm 13.1 WSW 21 25 1020.7 - 0.0 Fine Mostly clear 25 3 4.0 - S
19/08:30pm 13.1 WSW 23 28 1020.6 - 0.0 - - - - - - -
19/08:00pm 12.9 WSW 22 27 1020.7 - 0.0 - - - - - - -
19/07:30pm 12.9 WSW 22 29 1020.4 - 0.0 - - - - - - -
19/07:00pm 13.2 WSW 26 32 1020.2 - 0.0 - - - - - - -
19/06:30pm 13.1 WSW 24 32 1020.0 - 0.0 - - - - - - -
19/06:00pm 13.2 WSW 25 31 1019.8 - 0.0 - - - - - - -
19/05:30pm 13.5 WSW 25 33 1019.6 - 0.0 - - - - - - -
19/05:00pm 13.9 WSW 25 30 1019.4 - 0.0 - - - - - - -
19/04:34pm 14.1 WSW 27 37 1019.2 - 0.0 - - - - - - -
19/04:30pm 14.0 WSW 29 37 1019.1 - 0.0 - - - - - - -
19/04:00pm 14.2 WSW 27 33 1018.9 - 0.0 - - - - - - -
19/03:30pm 14.6 SW 28 35 1018.8 - 0.0 - - - - - - -
19/03:06pm 14.7 SW 27 37 1018.8 - 0.0 - - - - - - -
19/03:00pm 14.7 WSW 30 37 1018.7 - 0.0 Fine Mostly clear 25 3 4.0 - S
19/02:30pm 14.7 SW 29 35 1018.7 - 0.0 - - - - - - -
19/02:00pm 15.2 WSW 27 32 1018.8 - 0.0 - - - - - - -
19/01:30pm 15.4 WSW 28 36 1018.8 - 0.0 - - - - - - -
19/01:00pm 15.1 WSW 28 37 1019.0 - 0.0 - - - - - - -
19/12:30pm 14.8 WSW 29 35 1019.2 - 0.0 - - - - - - -
19/12:00pm 14.9 WSW 29 35 1019.5 - 0.0 - - - - - - -
19/11:44am 14.7 WSW 25 35 1019.6 - 0.0 - - - - - - -
19/11:30am 14.9 WSW 28 36 1019.7 - 0.0 - - - - - - -
19/11:00am 14.3 WSW 24 29 1020.0 - 0.0 - - - - - - -
19/10:30am 14.4 WSW 25 32 1020.0 - 0.0 - - - - - - -
19/10:00am 13.7 WSW 25 35 1020.1 - 0.0 - - - - - - -
19/09:58am 13.3 WSW 25 35 1020.1 - 0.0 - - - - - - -
19/09:30am 13.7 W 24 31 1020.1 - 0.0 - - - - - - -
19/09:00am 13.3 W 24 32 1020.3 - 0.4 Fine Partly cloudy 30 3 4.0 - S
19/08:30am 12.6 W 24 30 1020.2 - 0.4 - - - - - - -
19/08:00am 12.2 W 22 27 1020.0 - 0.4 - - - - - - -
19/07:46am 11.8 W 23 34 1019.9 - 0.4 - - - - - - -
19/07:30am 11.3 W 23 29 1019.9 - 0.4 - - - - - - -
19/07:00am 10.5 W 23 31 1019.8 - 0.4 - - - - - - -
19/06:30am 10.4 W 25 31 1019.7 - 0.4 - - - - - - -
19/06:00am 10.3 W 25 31 1019.4 - 0.4 - - - - - - -
19/05:30am 10.3 W 25 34 1019.2 - 0.4 - - - - - - -
19/05:00am 10.1 W 24 32 1019.1 - 0.4 - - - - - - -
19/04:30am 10.5 W 23 29 1019.2 - 0.4 - - - - - - -
19/04:00am 10.4 W 24 31 1019.1 - 0.4 - - - - - - -
19/03:30am 10.1 W 22 29 1019.0 - 0.4 - - - - - - -
19/03:00am 10.3 W 23 31 1019.2 - 0.4 Fine Partly cloudy 30 3 4.0 - S
19/02:30am 10.4 W 23 30 1019.1 - 0.4 - - - - - - -
19/02:16am 10.2 W 23 33 1019.2 - 0.4 - - - - - - -
19/02:00am 10.2 W 25 32 1019.4 - 0.4 - - - - - - -
19/01:30am 10.2 W 25 31 1019.5 - 0.4 - - - - - - -
19/01:00am 10.3 W 24 31 1019.8 - 0.4 - - - - - - -
19/12:30am 10.4 W 24 30 1019.7 - 0.4 - - - - - - -
19/12:00am 10.7 W 28 35 1019.9 - 0.4 - - - - - - -
 
Date/Time
EST
Temp

°C
Wind Pressure Rain
since 9am
mm
Weather Cloud Vis
km
Sea
Height
m
Swell
Dir
 
Speed
knots
Gust
knots
hPa Trend Height
m
Period
s
Dir
18/11:30pm 10.8 W 27 33 1019.7 - 0.4 - - - - - - -
18/11:00pm 10.9 W 26 32 1019.7 - 0.4 - - - - - - -
18/10:30pm 10.9 W 25 31 1019.6 - 0.4 - - - - - - -
18/10:00pm 10.7 W 21 29 1019.7 - 0.4 - - - - - - -
18/09:30pm 10.9 W 20 25 1019.9 - 0.4 - - - - - - -
18/09:00pm 10.9 W 20 24 1019.8 - 0.4 - - - - - - -
18/08:30pm 10.9 W 20 25 1019.8 - 0.4 - - - - - - -
18/08:00pm 11.2 W 19 23 1019.8 - 0.4 - - - - - - -
18/07:30pm 11.6 WSW 21 28 1019.5 - 0.4 - - - - - - -
18/07:00pm 11.7 WSW 22 27 1019.3 - 0.4 - - - - - - -
18/06:30pm 11.7 WSW 23 29 1019.3 - 0.4 - - - - - - -
18/06:00pm 11.9 WSW 25 32 1018.9 - 0.4 - - - - - - -
18/05:30pm 12.5 WSW 24 30 1018.5 - 0.4 - - - - - - -
18/05:00pm 13.0 WSW 28 35 1018.2 - 0.4 - - - - - - -
18/04:30pm 13.3 SW 26 33 1017.9 - 0.4 - - - - - - -
18/04:00pm 13.2 SW 28 35 1017.7 - 0.4 - - - - - - -
18/03:30pm 13.3 WSW 30 37 1017.6 - 0.4 - - - - - - -
18/03:00pm 13.0 WSW 26 32 1017.7 - 0.4 Fine Partly cloudy 20 3 4.0 - S
18/02:35pm 13.5 WSW 28 41 1017.4 - 0.4 - - - - - - -
18/02:30pm 13.5 WSW 28 37 1017.4 - 0.4 - - - - - - -
18/02:00pm 13.5 SW 31 37 1017.3 - 0.4 - - - - - - -
18/01:30pm 12.0 SW 31 41 1017.4 - 0.4 - - - - - - -
18/01:25pm 12.9 SW 30 41 1017.2 - 0.4 - - - - - - -
18/01:00pm 13.5 WSW 24 31 1017.2 - 0.4 - - - - - - -
18/12:30pm 13.2 WSW 27 34 1017.1 - 0.4 - - - - - - -
18/12:00pm 12.1 SW 28 37 1017.3 - 0.2 - - - - - - -
18/11:41am 12.2 SW 27 39 1017.2 - 0.0 - - - - - - -
18/11:30am 12.5 WSW 29 36 1017.2 - 0.0 - - - - - - -
18/11:15am 13.2 WSW 25 35 1017.3 - 0.0 - - - - - - -
18/11:00am 12.8 WSW 28 34 1017.3 - 0.0 - - - - - - -
18/10:30am 13.0 WSW 26 36 1017.3 - 0.0 - - - - - - -
18/10:05am 12.3 WSW 25 35 1017.1 - 0.0 - - - - - - -
18/10:00am 12.1 WSW 25 33 1017.2 - 0.0 - - - - - - -
18/09:56am 11.6 WSW 25 35 1017.1 - 0.0 - - - - - - -
18/09:30am 11.2 WSW 25 32 1017.0 - 0.0 - - - - - - -
18/09:23am 11.3 WSW 26 36 1016.9 - 0.0 - - - - - - -
18/09:00am 11.3 WSW 26 33 1016.5 - 1.0 Recent precip. Mostly cloudy 5 3 3.0 - SW
18/08:46am 10.7 WSW 26 36 1016.5 - 1.0 - - - - - - -
18/08:30am 10.7 WSW 29 35 1016.5 - 1.0 - - - - - - -
18/08:00am 10.6 WSW 27 35 1015.9 - 1.0 - - - - - - -
18/07:30am 10.1 W 28 35 1015.6 - 1.0 - - - - - - -
18/07:00am 10.0 W 26 34 1015.2 - 1.0 - - - - - - -
18/06:30am 9.8 W 29 35 1014.5 - 1.0 - - - - - - -
18/06:00am 9.0 WSW 29 36 1014.2 - 1.0 - - - - - - -
18/05:30am 9.5 W 29 34 1013.5 - 1.0 - - - - - - -
18/05:00am 9.6 W 27 35 1013.2 - 1.0 - - - - - - -
18/04:30am 9.1 W 27 33 1013.0 - 1.0 - - - - - - -
18/04:00am 9.2 W 28 36 1013.0 - 0.8 - - - - - - -
18/03:32am 9.2 W 26 36 1012.6 - 0.6 - - - - - - -
18/03:30am 9.2 W 26 32 1012.6 - 0.6 - - - - - - -
18/03:00am 9.0 W 30 37 1012.7 - 0.6 Fine Partly cloudy 30 3 3.0 - SW
18/02:30am 9.3 W 28 35 1012.8 - 0.6 - - - - - - -
18/02:14am 9.3 W 27 37 1012.8 - 0.6 - - - - - - -
18/02:00am 9.1 W 27 33 1012.8 - 0.6 - - - - - - -
18/01:33am 9.1 WSW 28 38 1013.2 - 0.6 - - - - - - -
18/01:30am 8.9 WSW 29 38 1013.2 - 0.6 - - - - - - -
18/01:00am 9.7 W 27 35 1013.2 - 0.6 - - - - - - -
18/12:30am 9.3 W 25 38 1013.4 - 0.6 - - - - - - -
18/12:02am 9.1 W 25 35 1013.5 - 0.6 - - - - - - -
18/12:00am 8.8 W 27 35 1013.4 - 0.6 - - - - - - -
 
Date/Time
EST
Temp

°C
Wind Pressure Rain
since 9am
mm
Weather Cloud Vis
km
Sea
Height
m
Swell
Dir
 
Speed
knots
Gust
knots
hPa Trend Height
m
Period
s
Dir
17/11:44pm 9.2 WSW 26 38 1013.8 - 0.4 - - - - - - -
17/11:30pm 9.9 W 27 35 1013.6 - 0.2 - - - - - - -
17/11:00pm 9.9 W 27 33 1013.5 - 0.2 - - - - - - -
17/10:30pm 9.8 WSW 23 31 1013.4 - 0.2 - - - - - - -
17/10:00pm 10.6 WSW 31 44 1013.0 - 0.2 - - - - - - -
17/09:45pm 11.0 WSW 29 43 1013.0 - 0.2 - - - - - - -
17/09:30pm 10.9 WSW 27 35 1012.7 - 0.2 - - - - - - -
17/09:11pm 10.9 W 24 34 1012.8 - 0.2 - - - - - - -
17/09:00pm 11.1 W 26 31 1012.7 - 0.2 Fine Partly cloudy 30 3 3.0 - SW
17/08:30pm 11.0 WSW 28 35 1012.2 - 0.2 - - - - - - -
17/08:13pm 10.8 W 28 38 1012.2 - 0.2 - - - - - - -
17/08:00pm 10.6 W 28 35 1012.2 - 0.2 - - - - - - -
17/07:30pm 10.8 W 29 36 1011.8 - 0.2 - - - - - - -
17/07:05pm 10.5 WSW 33 43 1011.8 - 0.2 - - - - - - -
17/07:00pm 10.5 WSW 36 44 1011.7 - 0.2 - - - - - - -
17/06:41pm 11.4 WSW 38 52 1011.2 - 0.2 - - - - - - -
17/06:36pm 11.7 WSW 32 42 1011.3 - 0.2 - - - - - - -
17/06:30pm 11.7 WSW 31 40 1011.2 - 0.2 - - - - - - -
17/06:00pm 11.3 SW 34 43 1010.8 - 0.2 - - - - - - -
17/05:39pm 12.4 SW 35 45 1010.2 - 0.2 - - - - - - -
17/05:38pm 12.7 SW 34 39 1010.2 - 0.2 - - - - - - -
17/05:32pm 12.8 WSW 21 31 1010.4 - 0.2 - - - - - - -
17/05:30pm 13.0 WSW 22 28 1010.3 - 0.2 - - - - - - -
17/05:00pm 12.7 WSW 27 37 1009.7 - 0.2 - - - - - - -
17/04:57pm 12.6 WSW 27 37 1009.6 - 0.2 - - - - - - -
17/04:30pm 12.4 WSW 28 36 1009.4 - 0.2 - - - - - - -

Other Formats:

Comma delimited format used in spreadsheet applications
http://www.bom.gov.au/fwo/IDT60701/IDT60701.94933.axf

JavaScript Object Notation format (JSON) in row-major order
http://www.bom.gov.au/fwo/IDT60701/IDT60701.94933.json